createdAt,value
2019-01-25T00:02:49.639Z,33.53
2019-01-25T00:06:54.750Z,34.20
2019-01-25T00:11:00.009Z,36.05
2019-01-25T00:15:07.840Z,35.98
2019-01-25T00:19:12.908Z,35.33
2019-01-25T00:23:18.030Z,36.03
2019-01-25T00:27:23.112Z,33.92
2019-01-25T00:31:28.213Z,35.43
2019-01-25T00:35:33.292Z,33.90
2019-01-25T00:39:38.405Z,36.25
2019-01-25T00:43:43.522Z,36.13
2019-01-25T00:47:48.589Z,33.55
2019-01-25T00:51:53.722Z,32.42
2019-01-25T00:55:58.808Z,35.00
2019-01-25T01:00:06.335Z,34.88
2019-01-25T01:04:12.373Z,34.87
2019-01-25T01:08:17.481Z,33.80
2019-01-25T01:12:22.555Z,35.95
2019-01-25T01:16:27.667Z,34.65
2019-01-25T01:20:32.777Z,35.08
2019-01-25T01:24:37.900Z,34.30
2019-01-25T01:28:42.953Z,35.00
2019-01-25T01:32:48.029Z,35.17
2019-01-25T01:36:53.167Z,34.35
2019-01-25T01:40:58.246Z,33.42
2019-01-25T01:45:03.351Z,34.58
2019-01-25T01:49:08.744Z,33.85
2019-01-25T01:53:13.859Z,34.00
2019-01-25T01:57:18.944Z,33.55
2019-01-25T02:01:24.052Z,33.08
2019-01-25T02:05:29.129Z,34.48
2019-01-25T02:09:34.244Z,33.28
2019-01-25T02:13:39.329Z,35.45
2019-01-25T02:17:44.432Z,33.83
2019-01-25T02:21:50.547Z,33.50
2019-01-25T02:25:55.631Z,33.85
2019-01-25T02:30:00.780Z,34.25
2019-01-25T02:34:07.178Z,35.83
2019-01-25T02:38:12.287Z,36.25
2019-01-25T02:42:17.405Z,35.35
2019-01-25T02:46:22.516Z,35.92
2019-01-25T02:50:27.617Z,35.50
2019-01-25T02:54:32.709Z,35.03
2019-01-25T02:58:37.823Z,35.48
2019-01-25T03:02:42.900Z,35.98
2019-01-25T03:06:48.051Z,34.85
2019-01-25T03:10:53.125Z,36.05
2019-01-25T03:14:58.235Z,36.23
2019-01-25T03:19:03.329Z,36.00
2019-01-25T03:23:08.430Z,36.35
2019-01-25T03:27:13.559Z,34.90
2019-01-25T03:31:18.642Z,35.28
2019-01-25T03:35:24.740Z,35.17
2019-01-25T03:39:29.847Z,36.03
2019-01-25T03:43:34.932Z,34.35
2019-01-25T03:47:40.047Z,35.33
2019-01-25T03:51:45.130Z,34.35
2019-01-25T03:55:50.236Z,33.92
2019-01-25T03:59:55.323Z,35.90
2019-01-25T04:04:00.432Z,35.28
2019-01-25T04:08:05.583Z,36.73
2019-01-25T04:12:10.710Z,36.42
2019-01-25T04:16:15.788Z,35.17
2019-01-25T04:20:22.507Z,37.40
2019-01-25T04:24:27.605Z,34.53
2019-01-25T04:28:32.821Z,36.33
2019-01-25T04:32:37.911Z,37.20
2019-01-25T04:36:43.008Z,35.03
2019-01-25T04:40:48.126Z,34.70
2019-01-25T04:44:53.208Z,35.28
2019-01-25T04:48:58.325Z,35.28
2019-01-25T04:53:03.473Z,35.15
2019-01-25T04:57:08.519Z,34.60
2019-01-25T05:01:13.628Z,34.33
2019-01-25T05:05:18.712Z,35.52
2019-01-25T05:09:23.814Z,36.05
2019-01-25T05:13:28.894Z,35.60
2019-01-25T05:17:33.996Z,35.60
2019-01-25T05:21:39.075Z,37.05
2019-01-25T05:25:44.184Z,37.10
2019-01-25T05:29:51.925Z,37.23
2019-01-25T05:33:57.045Z,38.25
2019-01-25T05:38:02.130Z,36.15
2019-01-25T05:42:07.228Z,38.73
2019-01-25T05:46:12.359Z,37.33
2019-01-25T05:50:18.032Z,37.17
2019-01-25T05:54:23.127Z,40.75
2019-01-25T05:58:28.223Z,38.38
2019-01-25T06:02:33.325Z,39.70
2019-01-25T06:06:38.415Z,37.63
2019-01-25T06:10:43.544Z,37.60
2019-01-25T06:14:48.619Z,37.93
2019-01-25T06:18:53.724Z,37.88
2019-01-25T06:22:58.835Z,39.65
2019-01-25T06:27:03.911Z,39.95
2019-01-25T06:31:09.030Z,37.17
2019-01-25T06:35:14.111Z,40.12
2019-01-25T06:39:19.231Z,39.88
2019-01-25T06:43:24.351Z,39.73
2019-01-25T06:47:29.418Z,39.18
2019-01-25T06:51:34.582Z,39.33
2019-01-25T06:55:39.696Z,38.70
2019-01-25T06:59:44.773Z,38.75
2019-01-25T07:03:49.899Z,39.60
2019-01-25T07:07:55.032Z,39.40
2019-01-25T07:12:00.115Z,44.93
2019-01-25T07:16:05.245Z,37.85
2019-01-25T07:20:13.012Z,38.38
2019-01-25T07:24:18.118Z,36.17
2019-01-25T07:28:23.209Z,36.05
2019-01-25T07:32:28.320Z,38.28
2019-01-25T07:36:33.428Z,36.48
2019-01-25T07:40:38.500Z,36.73
2019-01-25T07:44:43.633Z,36.73
2019-01-25T07:48:48.690Z,37.63
2019-01-25T07:52:53.790Z,35.58
2019-01-25T07:56:58.911Z,37.10
2019-01-25T08:01:04.022Z,37.17
2019-01-25T08:05:10.625Z,36.35
2019-01-25T08:09:16.806Z,36.90
2019-01-25T08:13:21.873Z,36.03
2019-01-25T08:17:26.984Z,37.33
2019-01-25T08:21:32.147Z,36.10
2019-01-25T08:25:37.236Z,35.15
2019-01-25T08:29:42.299Z,36.70
2019-01-25T08:33:47.386Z,36.13
2019-01-25T08:37:52.543Z,35.95
2019-01-25T08:41:57.672Z,37.00
2019-01-25T08:46:02.767Z,35.65
2019-01-25T08:50:13.907Z,35.85
2019-01-25T08:54:19.029Z,36.17
2019-01-25T08:58:24.177Z,36.98
2019-01-25T09:02:29.302Z,35.95
2019-01-25T09:06:34.397Z,36.98
2019-01-25T09:10:39.498Z,34.43
2019-01-25T09:14:44.577Z,35.15
2019-01-25T09:18:49.690Z,35.58
2019-01-25T09:22:54.820Z,34.75
2019-01-25T09:26:59.898Z,35.48
2019-01-25T09:31:05.020Z,34.70
2019-01-25T09:35:10.294Z,36.15
2019-01-25T09:39:15.422Z,36.58
2019-01-25T09:43:20.500Z,34.20
2019-01-25T09:47:25.600Z,35.28
2019-01-25T09:51:30.721Z,36.60
2019-01-25T09:55:35.809Z,34.95
2019-01-25T09:59:42.362Z,36.17
2019-01-25T10:03:47.520Z,36.80
2019-01-25T10:07:52.631Z,36.00
2019-01-25T10:11:57.724Z,34.92
2019-01-25T10:16:02.836Z,35.95
2019-01-25T10:20:10.042Z,35.25
2019-01-25T10:24:15.116Z,36.23
2019-01-25T10:28:20.215Z,34.92
2019-01-25T10:32:25.302Z,37.42
2019-01-25T10:36:30.404Z,36.13
2019-01-25T10:40:35.487Z,49.88
2019-01-25T10:44:40.597Z,37.00
2019-01-25T10:48:45.673Z,37.15
2019-01-25T10:52:50.794Z,33.10
2019-01-25T10:56:55.873Z,34.38
2019-01-25T11:01:01.036Z,32.78
2019-01-25T11:05:09.084Z,32.17
2019-01-25T11:09:14.156Z,33.08
2019-01-25T11:13:19.278Z,32.23
2019-01-25T11:17:24.356Z,30.80
2019-01-25T11:21:29.458Z,30.80
2019-01-25T11:25:40.109Z,29.32
2019-01-25T11:29:45.179Z,30.20
2019-01-25T11:33:50.303Z,29.87
2019-01-25T11:37:55.397Z,28.87
2019-01-25T11:42:00.542Z,29.98
2019-01-25T11:46:05.621Z,29.90
2019-01-25T11:50:21.082Z,30.60
2019-01-25T11:54:26.202Z,31.23
2019-01-25T11:58:31.405Z,30.72
2019-01-25T12:02:36.513Z,31.27
2019-01-25T12:06:41.636Z,32.63
2019-01-25T12:10:46.752Z,29.07
2019-01-25T12:14:51.849Z,29.35
2019-01-25T12:18:57.046Z,30.30
2019-01-25T12:23:02.110Z,25.60
2019-01-25T12:27:07.322Z,28.45
2019-01-25T12:31:12.448Z,26.62
2019-01-25T12:35:17.521Z,25.10
2019-01-25T12:39:22.625Z,24.63
2019-01-25T12:43:28.007Z,24.52
2019-01-25T12:47:33.052Z,25.80
2019-01-25T12:51:38.161Z,26.42
2019-01-25T12:55:43.247Z,24.70
2019-01-25T12:59:48.388Z,22.45
2019-01-25T13:03:53.490Z,23.10
2019-01-25T13:07:58.591Z,24.05
2019-01-25T13:12:03.772Z,22.75
2019-01-25T13:16:08.966Z,21.27
2019-01-25T13:20:20.356Z,22.00
2019-01-25T13:24:25.698Z,23.35
2019-01-25T13:28:30.803Z,21.15
2019-01-25T13:32:35.876Z,21.82
2019-01-25T13:36:41.553Z,22.80
2019-01-25T13:40:47.007Z,20.75
2019-01-25T13:44:52.254Z,21.62
2019-01-25T13:48:57.604Z,20.60
2019-01-25T13:53:02.955Z,20.30
2019-01-25T13:57:09.455Z,20.88
2019-01-25T14:01:14.591Z,20.15
2019-01-25T14:05:19.744Z,21.30
2019-01-25T14:09:24.862Z,20.62
2019-01-25T14:13:34.111Z,21.15
2019-01-25T14:17:37.117Z,20.20
2019-01-25T14:21:42.253Z,19.70
2019-01-25T14:25:47.327Z,21.05
2019-01-25T14:29:52.749Z,19.62
2019-01-25T14:33:59.023Z,22.05
2019-01-25T14:38:04.575Z,21.75
2019-01-25T14:42:10.129Z,19.32
2019-01-25T14:46:15.587Z,20.10
2019-01-25T14:50:24.010Z,20.88
2019-01-25T14:54:29.604Z,21.03
2019-01-25T14:58:35.014Z,20.75
2019-01-25T15:02:40.485Z,21.42
2019-01-25T15:06:46.022Z,19.55
2019-01-25T15:10:52.220Z,21.65
2019-01-25T15:14:57.642Z,20.80
2019-01-25T15:19:03.136Z,21.50
2019-01-25T15:23:10.488Z,21.37
2019-01-25T15:27:15.640Z,21.62
2019-01-25T15:31:21.197Z,22.13
2019-01-25T15:35:26.750Z,21.97
2019-01-25T15:39:32.207Z,23.32
2019-01-25T15:43:37.554Z,22.22
2019-01-25T15:47:43.110Z,23.25
2019-01-25T15:51:49.687Z,21.93
2019-01-25T15:55:55.159Z,23.42
2019-01-25T16:00:00.695Z,23.67
2019-01-25T16:04:06.148Z,23.95
2019-01-25T16:08:13.444Z,22.98
2019-01-25T16:12:18.998Z,24.95
2019-01-25T16:16:24.451Z,24.75
2019-01-25T16:20:31.134Z,23.42
2019-01-25T16:24:36.585Z,24.05
2019-01-25T16:28:42.139Z,23.38
2019-01-25T16:32:47.491Z,23.00
2019-01-25T16:36:52.947Z,23.77
2019-01-25T16:40:58.400Z,23.85
2019-01-25T16:45:04.697Z,23.80
2019-01-25T16:49:10.431Z,24.95
2019-01-25T16:53:17.113Z,24.87
2019-01-25T16:57:22.670Z,24.37
2019-01-25T17:01:31.155Z,24.18
2019-01-25T17:05:38.453Z,27.10
2019-01-25T17:09:44.451Z,25.72
2019-01-25T17:13:49.903Z,25.40
2019-01-25T17:17:55.271Z,26.57
2019-01-25T17:22:02.903Z,26.52
2019-01-25T17:26:08.411Z,27.50
2019-01-25T17:30:25.644Z,27.27
2019-01-25T17:34:31.094Z,25.92
2019-01-25T17:38:36.651Z,25.17
2019-01-25T17:42:42.138Z,27.07
2019-01-25T17:46:48.783Z,25.60
2019-01-25T17:50:54.341Z,29.18
2019-01-25T17:55:01.491Z,28.70
2019-01-25T17:59:08.628Z,29.70
2019-01-25T18:03:14.179Z,29.12
2019-01-25T18:07:20.794Z,27.27
2019-01-25T18:11:30.302Z,25.85
2019-01-25T18:15:35.698Z,26.68
2019-01-25T18:19:41.418Z,28.62
2019-01-25T18:23:46.869Z,27.82
2019-01-25T18:27:56.008Z,30.92
2019-01-25T18:32:02.997Z,32.85
2019-01-25T18:36:09.988Z,28.55
2019-01-25T18:40:17.218Z,29.02
2019-01-25T18:44:23.146Z,30.92
2019-01-25T18:48:29.722Z,33.20
2019-01-25T18:52:35.321Z,31.65
2019-01-25T18:56:41.173Z,33.00
2019-01-25T19:00:46.696Z,33.67
2019-01-25T19:04:55.239Z,33.70
2019-01-25T19:09:00.775Z,36.67
2019-01-25T19:13:07.871Z,35.00
2019-01-25T19:17:13.354Z,37.42
2019-01-25T19:38:57.161Z,10.98
2019-01-25T19:43:02.477Z,28.02
2019-01-25T19:47:07.846Z,48.05
2019-01-25T19:51:13.008Z,44.98
2019-01-25T19:55:21.395Z,42.27
2019-01-25T19:59:26.468Z,44.63
2019-01-25T20:03:33.127Z,42.08
2019-01-25T20:07:38.631Z,40.58
2019-01-25T20:11:45.855Z,39.58
2019-01-25T20:15:51.499Z,42.00
2019-01-25T20:19:59.781Z,39.90
2019-01-25T20:24:05.439Z,42.55
2019-01-25T20:28:13.112Z,40.43
2019-01-25T20:32:18.803Z,40.58
2019-01-25T20:36:25.381Z,41.73
2019-01-25T20:40:31.139Z,40.35
2019-01-25T20:44:38.919Z,40.52
2019-01-25T20:48:45.015Z,41.92
2019-01-25T20:52:50.673Z,41.85
2019-01-25T20:56:57.996Z,41.00
2019-01-25T21:01:03.729Z,40.73
2019-01-25T21:05:09.439Z,41.92
2019-01-25T21:09:15.835Z,43.30
2019-01-25T21:13:21.554Z,42.48
2019-01-25T21:17:29.535Z,41.63
2019-01-25T21:21:36.418Z,43.08
2019-01-25T21:25:43.407Z,43.23
2019-01-25T21:29:50.997Z,41.65
2019-01-25T21:33:58.102Z,40.95
2019-01-25T21:38:03.657Z,42.65
2019-01-25T21:42:09.113Z,41.95
2019-01-25T21:46:14.702Z,42.23
2019-01-25T21:50:22.314Z,41.42
2019-01-25T21:54:27.827Z,40.35
2019-01-25T21:58:33.177Z,42.98
2019-01-25T22:02:38.635Z,40.98
2019-01-25T22:06:44.185Z,42.85
2019-01-25T22:10:49.643Z,43.00
2019-01-25T22:14:55.195Z,42.75
2019-01-25T22:19:00.753Z,41.75
2019-01-25T22:23:06.233Z,42.53
2019-01-25T22:27:13.086Z,42.27
2019-01-25T22:31:18.644Z,40.20
2019-01-25T22:35:24.200Z,40.43
2019-01-25T22:39:29.650Z,40.63
2019-01-25T22:43:34.999Z,37.08
2019-01-25T22:47:40.452Z,39.18
2019-01-25T22:51:46.006Z,37.53
2019-01-25T22:55:51.460Z,35.73
2019-01-25T22:59:56.912Z,33.90
2019-01-25T23:04:11.685Z,35.68
2019-01-25T23:08:17.035Z,35.52
2019-01-25T23:12:22.284Z,33.50
2019-01-25T23:16:27.631Z,33.10
2019-01-25T23:20:32.981Z,31.45
2019-01-25T23:24:38.545Z,30.37
2019-01-25T23:28:44.092Z,31.48
2019-01-25T23:32:49.340Z,28.90
2019-01-25T23:36:54.397Z,30.20
2019-01-25T23:40:59.577Z,29.15
2019-01-25T23:45:05.995Z,28.67
2019-01-25T23:49:11.065Z,30.20
2019-01-25T23:53:16.398Z,28.20
2019-01-25T23:57:21.464Z,28.70
